< Typhoon 202216 2022 Season Typhoon 202218 >
Typhoon 202217 (KULAP)
General InformationTrack Information on Google MapsDetailed Wind InformationForecast History on Google MapsAccess Analytics MapList of All Images || NewsDisaster Info.JMA Disaster Info. XMLWeblogTrackbackTyphoon FrontTwiphoonTyphoon Now!Typhoon ImaginationResourceGoogle EarthGE AnimationAtom FeedGeoJSON
Detalied Best Track (Time Zone = UTC)
Year Month Day Hour Lat. Long. Pressure (hPa) Wind (kt) Class Image Chart
2022 9 25 06 19.9 146.4 1004 30 2 Image Chart
2022 9 25 09 20.2 145.8 1004 30 2 Image Chart
2022 9 25 12 21.0 145.2 1004 30 2 Image Chart
2022 9 25 15 21.3 144.3 1004 30 2 Image Chart
2022 9 25 18 22.1 144.3 1002 30 2 Image Chart
2022 9 25 21 22.9 144.2 1002 30 2 Image Chart
2022 9 26 00 23.6 143.8 1000 35 3 Image Chart
2022 9 26 03 23.6 143.3 1000 35 3 Image Chart
2022 9 26 06 24.2 143.2 1000 35 3 Image Chart
2022 9 26 09 25.0 143.2 1000 35 3 Image Chart
2022 9 26 12 25.9 142.4 998 40 3 Image Chart
2022 9 26 15 26.2 141.9 998 40 3 Image Chart
2022 9 26 18 27.0 142.0 992 50 4 Image Chart
2022 9 26 21 27.6 141.8 992 50 4 Image Chart
2022 9 27 00 27.9 141.8 992 50 4 Image Chart
2022 9 27 03 28.1 141.8 992 50 4 Image Chart
2022 9 27 06 28.6 141.9 992 50 4 Image Chart
2022 9 27 09 29.2 142.2 992 50 4 Image Chart
2022 9 27 12 29.7 142.7 992 50 4 Image Chart
2022 9 27 15 30.1 143.3 992 50 4 Image Chart
2022 9 27 18 30.7 144.3 985 55 4 Image Chart
2022 9 27 21 31.5 145.0 985 55 4 Image Chart
2022 9 28 00 32.1 145.9 985 55 4 Image Chart
2022 9 28 03 32.6 146.1 980 55 4 Image Chart
2022 9 28 06 33.1 146.9 980 55 4 Image Chart
2022 9 28 09 33.8 149.1 980 55 4 Image Chart
2022 9 28 12 34.5 150.3 980 55 4 Image Chart
2022 9 28 15 35.5 151.8 980 55 4 Image Chart
2022 9 28 18 36.5 153.0 975 60 4 Image Chart
2022 9 28 21 37.4 154.3 970 60 4 Image Chart
2022 9 29 00 38.6 155.8 970 60 4 Image Chart
2022 9 29 03 39.8 157.1 970 60 4 Image Chart
2022 9 29 06 42.0 159.0 966 65 6 Image Chart
Japan Meteorological Agency Best Track Data | Correction Date : 2022-09-29
< Typhoon 202216 2022 Season Typhoon 202218 >

Help